Latest Weather Observations for Wellcamp Airport

IDQ60801

Issued at 4:12 pm EST Saturday 5 December 2020 (issued every 10 minutes, with the page automatically refreshed every 10 minutes)

About weather observations | Map of weather stations | Latest weather observations for QLD | Other Formats
Station Details ID: 541150 Name: WELLCAMP AIRPORT Lat: -27.55 Lon: 151.78 Height: 436.98 m
Data from the previous 72 hours. | See also: Recent months for locations in Queensland
Date/Time
EST
Temp
°C
App
Temp
°C
Dew
Point
°C
Rel
Hum
%
Delta-T
°C
Wind Press
QNH
hPa
Press
MSL
hPa
Rain since
9am
mm
Dir  Spd
km/h
Gust
km/h
Spd
kts
Gust
kts
05/04:00pm 36.8 33.5 11.6 22 15.3 N 20 32 11 17 1008.1 1005.6 0.0
05/03:30pm 36.9 33.3 11.7 22 15.3 NNE 22 32 12 17 1008.3 1005.9 0.0
05/03:00pm 37.1 34.1 12.5 23 15.2 NNW 20 26 11 14 1008.8 1006.4 0.0
05/02:30pm 37.0 34.3 11.8 22 15.4 NNW 17 28 9 15 1009.2 1006.8 0.0
05/02:00pm 37.5 36.1 12.2 22 15.6 NE 11 22 6 12 1009.6 1007.2 0.0
05/01:37pm 37.6 34.9 13.6 24 15.0 NE 20 50 11 27 1009.8 1007.4 0.0
05/01:30pm 36.7 33.8 12.8 24 14.8 ENE 20 32 11 17 1010.0 1007.6 0.0
05/01:00pm 37.3 35.3 12.7 23 15.2 N 15 30 8 16 1010.8 1008.4 0.0
05/12:30pm 36.6 33.7 12.8 24 14.7 NNE 20 32 11 17 1011.3 1008.9 0.0
05/12:00pm 36.0 34.6 13.5 26 14.0 NNW 13 20 7 11 1012.0 1009.6 0.0
05/11:30am 34.5 32.1 13.9 29 12.8 NNE 19 32 10 17 1012.3 1010.0 0.0
05/11:00am 34.8 33.1 13.6 28 13.2 N 15 24 8 13 1012.8 1010.4 0.0
05/10:30am 35.7 34.4 14.9 29 13.2 N 15 24 8 13 1013.1 1010.7 0.0
05/10:00am 34.9 33.4 15.3 31 12.5 NNE 17 28 9 15 1013.4 1011.0 0.0
05/09:30am 33.6 31.7 15.1 33 11.7 NNW 19 28 10 15 1013.8 1011.4 0.0
05/09:00am 32.2 30.9 15.7 37 10.5 NNE 17 26 9 14 1014.1 1011.7 0.0
05/08:30am 30.7 30.7 16.3 42 9.2 N 11 19 6 10 1014.5 1012.2 0.0
05/08:00am 28.8 29.7 16.7 48 7.7 NNW 7 13 4 7 1014.8 1012.5 0.0
05/07:30am 28.1 27.9 16.7 50 7.2 N 13 20 7 11 1014.6 1012.3 0.0
05/07:00am 26.9 27.0 16.5 53 6.5 NNE 11 17 6 9 1014.8 1012.5 0.0
05/06:30am 25.3 26.2 16.7 59 5.4 NNE 7 17 4 9 1014.6 1012.3 0.0
05/06:00am 24.5 25.4 17.5 65 4.4 NE 9 11 5 6 1014.3 1012.0 0.0
05/05:30am 23.2 24.0 17.4 70 3.7 ENE 9 13 5 7 1013.9 1011.5 0.0
05/05:00am 22.7 24.0 17.2 71 3.5 E 6 9 3 5 1013.4 1011.0 0.0
05/04:30am 22.8 23.3 17.5 72 3.3 ENE 11 19 6 10 1013.0 1010.6 0.0
05/04:00am 23.0 23.3 17.9 73 3.2 E 13 22 7 12 1012.6 1010.3 0.0
05/03:30am 22.7 24.7 17.8 74 3.1 NE 4 9 2 5 1012.4 1010.1 0.0
05/03:00am 22.9 24.6 18.0 74 3.1 ESE 6 11 3 6 1012.5 1010.2 0.0
05/02:30am 23.1 24.7 17.8 72 3.4 E 6 9 3 5 1012.4 1010.1 0.0
05/02:00am 23.9 24.6 17.9 69 3.8 ENE 11 15 6 8 1012.3 1010.0 0.0
05/01:30am 25.1 25.7 17.8 64 4.7 ESE 11 15 6 8 1012.3 1010.0 0.0
05/01:00am 25.3 27.4 18.2 64 4.6 ENE 4 9 2 5 1012.4 1010.1 0.0
05/12:30am 24.3 26.6 17.8 67 4.1 NNW 2 6 1 3 1012.6 1010.3 0.0
05/12:00am 25.0 26.9 17.7 64 4.7 S 4 7 2 4 1012.6 1010.3 0.0
 
Date/Time
EST
Temp
°C
App
Temp
°C
Dew
Point
°C
Rel
Hum
%
Delta-T
°C
Wind Press
QNH
hPa
Press
MSL
hPa
Rain since
9am
mm
Dir  Spd
km/h
Gust
km/h
Spd
kts
Gust
kts
04/11:30pm 25.3 23.6 18.0 64 4.7 ENE 24 30 13 16 1012.6 1010.3 0.0
04/11:00pm 25.4 22.6 18.3 65 4.6 ENE 30 39 16 21 1013.2 1010.8 0.0
04/10:30pm 26.0 22.7 18.4 63 4.9 E 33 41 18 22 1013.7 1011.3 0.0
04/10:00pm 28.1 25.0 18.5 56 6.3 E 32 41 17 22 1013.7 1011.3 0.0
04/09:30pm 30.3 28.8 16.3 42 8.9 ESE 19 28 10 15 1013.5 1011.1 0.0
04/09:00pm 29.6 28.5 14.2 39 9.5 SE 13 19 7 10 1013.4 1011.0 0.0
04/08:30pm 30.1 29.2 13.8 37 10.0 S 11 13 6 7 1012.9 1010.5 0.0
04/08:00pm 30.8 30.0 14.0 36 10.3 S 11 15 6 8 1012.6 1010.3 0.0
04/07:30pm 31.4 31.0 14.1 35 10.7 S 9 13 5 7 1012.5 1010.2 0.0
04/07:00pm 32.6 31.1 14.2 32 11.4 SSW 15 19 8 10 1012.1 1009.7 0.0
04/06:30pm 33.5 31.8 13.5 29 12.3 SSW 15 19 8 10 1011.7 1009.3 0.0
04/06:00pm 34.6 31.7 12.9 27 13.3 SSW 20 32 11 17 1011.5 1009.1 0.0
04/05:30pm 35.9 34.1 13.4 26 14.0 SSW 15 20 8 11 1011.2 1008.8 0.0
04/05:00pm 36.3 35.8 12.5 24 14.6 SSW 7 17 4 9 1011.2 1008.8 0.0
04/04:30pm 36.9 35.4 13.0 24 14.8 SSW 13 28 7 15 1011.2 1008.8 0.0
04/04:00pm 36.1 35.7 12.3 24 14.6 SSW 6 11 3 6 1011.3 1008.9 0.0
04/03:30pm 36.9 34.6 13.0 24 14.8 SW 17 28 9 15 1011.6 1009.2 0.0
04/03:00pm 36.3 35.4 12.5 24 14.6 SSE 9 20 5 11 1012.0 1009.6 0.0
04/02:30pm 35.3 35.2 14.0 28 13.3 WNW 7 20 4 11 1012.6 1010.3 0.0
04/02:00pm 35.8 34.6 13.9 27 13.7 WSW 13 26 7 14 1013.1 1010.7 0.0
04/01:30pm 35.7 35.0 14.4 28 13.4 WNW 11 24 6 13 1013.5 1011.1 0.0
04/01:00pm 34.9 35.1 15.7 31 12.3 WSW 9 30 5 16 1014.0 1011.6 0.0
04/12:30pm 33.4 33.1 15.4 34 11.4 NW 11 22 6 12 1014.6 1012.3 0.0
04/12:00pm 33.0 33.3 15.9 35 10.9 N 9 17 5 9 1015.2 1012.8 0.0
04/11:30am 31.5 31.8 15.9 39 9.9 NNW 9 19 5 10 1015.9 1013.5 0.0
04/11:00am 31.2 31.1 16.0 40 9.6 NW 11 20 6 11 1016.2 1013.8 0.0
04/10:30am 30.6 29.8 17.0 44 8.7 NNW 17 26 9 14 1016.4 1014.1 0.0
04/10:00am 28.7 27.6 17.2 49 7.4 NNW 19 30 10 16 1016.8 1014.5 0.0
04/09:30am 27.5 26.7 17.9 55 6.2 N 19 28 10 15 1017.8 1015.4 0.0
04/09:00am 25.5 25.3 17.7 62 5.0 N 15 22 8 12 1018.5 1016.2 0.0
04/08:30am 25.6 26.2 17.8 62 5.0 NNW 11 20 6 11 1019.0 1016.7 0.0
04/08:00am 24.4 25.2 18.1 68 4.0 NNE 11 19 6 10 1019.7 1017.4 0.0
04/07:54am 24.3 25.5 18.2 68 3.9 N 9 19 5 10 1020.0 1017.6 0.0
04/07:30am 23.8 24.2 18.2 71 3.6 ENE 13 19 7 10 1020.0 1017.6 0.0
04/07:00am 22.9 22.9 18.0 74 3.1 NE 15 24 8 13 1019.8 1017.5 0.0
04/06:30am 22.5 23.3 18.1 76 2.8 SE 11 15 6 8 1020.1 1017.7 0.0
04/06:00am 22.4 23.2 18.2 77 2.7 ESE 11 17 6 9 1020.2 1017.8 0.0
04/05:30am 22.2 23.0 18.2 78 2.5 S 11 17 6 9 1019.7 1017.4 0.0
04/05:15am 21.9 23.0 17.9 78 2.5 SSE 9 13 5 7 1019.4 1017.1 0.0
04/05:00am 21.6 22.6 17.8 79 2.4 E 9 13 5 7 1018.7 1016.4 0.0
04/04:30am 21.6 21.9 17.8 79 2.4 ENE 13 19 7 10 1018.4 1016.1 0.0
04/04:00am 21.9 21.0 17.7 77 2.6 E 19 24 10 13 1018.6 1016.3 0.0
04/03:30am 22.2 21.4 18.0 77 2.7 ESE 19 26 10 14 1018.6 1016.3 0.0
04/03:00am 22.0 20.8 17.6 76 2.8 ESE 20 28 11 15 1018.6 1016.3 0.0
04/02:30am 22.2 20.5 17.3 74 3.1 SE 22 26 12 14 1019.0 1016.7 0.0
04/02:00am 22.4 22.3 16.9 71 3.4 SSW 13 17 7 9 1019.7 1017.4 0.0
04/01:30am 22.4 23.0 16.7 70 3.5 E 9 13 5 7 1019.7 1017.4 0.0
04/01:00am 22.5 23.3 16.3 68 3.8 NNE 7 15 4 8 1020.0 1017.6 0.0
04/12:30am 22.7 21.2 16.3 67 4.0 E 19 28 10 15 1019.4 1017.1 0.0
04/12:00am 22.9 23.6 16.2 66 4.1 NE 7 17 4 9 1020.2 1017.8 0.0
 
Date/Time
EST
Temp
°C
App
Temp
°C
Dew
Point
°C
Rel
Hum
%
Delta-T
°C
Wind Press
QNH
hPa
Press
MSL
hPa
Rain since
9am
mm
Dir  Spd
km/h
Gust
km/h
Spd
kts
Gust
kts
03/11:30pm 23.1 19.9 16.2 65 4.3 E 28 43 15 23 1019.0 1016.7 0.0
03/11:09pm 23.3 19.6 16.1 64 4.4 E 30 48 16 26 1018.8 1016.5 0.0
03/11:00pm 23.3 19.2 15.9 63 4.5 ENE 32 48 17 26 1018.5 1016.2 0.0
03/10:30pm 23.7 20.4 16.0 62 4.8 E 28 41 15 22 1019.1 1016.8 0.0
03/10:00pm 24.0 19.7 16.0 61 4.9 E 33 44 18 24 1018.5 1016.2 0.0
03/09:30pm 24.3 20.3 16.3 61 5.0 E 32 43 17 23 1018.4 1016.1 0.0
03/09:00pm 24.9 21.4 16.6 60 5.2 E 30 44 16 24 1018.3 1015.9 0.0
03/08:30pm 25.4 20.6 16.5 58 5.6 E 37 50 20 27 1018.6 1016.3 0.0
03/08:00pm 26.1 22.0 16.4 55 6.1 E 33 48 18 26 1018.5 1016.2 0.0
03/07:30pm 27.1 24.3 16.4 52 6.7 E 26 37 14 20 1017.9 1015.5 0.0
03/07:00pm 27.8 23.9 16.4 50 7.2 E 32 43 17 23 1017.6 1015.2 0.0
03/06:30pm 28.7 25.2 16.6 48 7.7 E 30 39 16 21 1017.3 1015.0 0.0
03/06:00pm 29.8 26.2 16.2 43 8.6 E 30 43 16 23 1016.9 1014.6 0.0
03/05:30pm 30.8 27.3 16.4 42 9.2 ESE 30 41 16 22 1016.7 1014.4 0.0
03/05:00pm 31.4 28.2 16.2 40 9.7 E 28 39 15 21 1016.3 1014.0 0.0
03/04:30pm 32.2 29.1 16.5 39 10.1 ESE 28 39 15 21 1016.2 1013.8 0.0
03/04:00pm 32.1 28.8 16.0 38 10.2 E 28 39 15 21 1016.1 1013.7 0.0
03/03:30pm 33.0 31.5 16.8 38 10.5 E 20 35 11 19 1016.3 1014.0 0.0
03/03:00pm 33.0 31.7 16.8 38 10.4 E 19 32 10 17 1016.7 1014.4 0.0
03/02:30pm 32.9 31.0 16.7 38 10.4 ENE 22 35 12 19 1017.1 1014.8 0.0
03/02:00pm 32.7 31.3 16.5 37 10.4 ENE 19 33 10 18 1017.2 1014.9 0.0
03/01:30pm 32.6 31.7 16.8 38 10.2 ENE 17 30 9 16 1017.4 1015.1 0.0
03/01:00pm 31.5 30.3 17.0 41 9.3 E 19 37 10 20 1017.9 1015.5 0.0
03/12:30pm 31.0 28.8 17.0 43 9.0 E 24 37 13 20 1018.2 1015.8 0.0
03/12:00pm 31.5 30.1 17.0 41 9.3 ENE 20 39 11 21 1018.4 1016.1 0.0
03/11:30am 30.2 29.7 16.9 44 8.5 ENE 15 24 8 13 1018.7 1016.4 0.0
03/11:00am 29.6 27.9 17.1 47 8.0 ENE 22 33 12 18 1019.1 1016.8 0.0
03/10:30am 28.7 26.4 17.6 51 7.1 E 26 37 14 20 1019.4 1017.1 0.0
03/10:00am 28.2 26.3 17.7 53 6.7 NE 24 37 13 20 1019.6 1017.3 0.0
03/09:30am 26.7 24.7 18.3 60 5.4 NE 26 39 14 21 1019.8 1017.5 0.0
03/09:00am 26.1 24.9 18.5 63 4.9 ENE 22 33 12 18 1019.8 1017.5 -
03/08:30am 24.7 23.3 18.9 70 3.8 ENE 24 33 13 18 1020.2 1017.8 -
03/08:00am 23.9 23.6 19.2 75 3.0 ENE 19 26 10 14 1020.3 1017.9 -
03/07:30am 23.4 22.5 19.1 77 2.8 ENE 22 30 12 16 1020.3 1017.9 -
03/07:00am 23.4 22.7 18.7 75 3.0 E 20 28 11 15 1020.2 1017.8 -
03/06:40am 23.3 22.7 18.8 76 2.9 E 20 28 11 15 1020.0 1017.6 -
03/06:30am 23.2 22.8 18.9 77 2.8 E 19 24 10 13 1019.7 1017.4 -
03/06:02am 22.8 22.3 19.0 79 2.5 E 20 33 11 18 1019.5 1017.2 -
03/06:00am 22.8 21.9 19.0 79 2.4 E 22 33 12 18 1019.4 1017.1 -
03/05:30am 22.7 23.5 19.1 80 2.3 E 13 19 7 10 1019.3 1017.0 -
03/05:00am 22.7 24.1 18.7 78 2.6 NE 9 19 5 10 1018.9 1016.6 -
03/04:30am 22.8 23.9 18.8 78 2.6 ENE 11 19 6 10 1018.2 1015.8 -
03/04:00am 22.8 22.1 18.6 77 2.7 NE 20 32 11 17 1017.3 1015.0 -
03/03:30am 22.8 20.2 18.6 77 2.7 NE 30 41 16 22 1017.1 1014.8 -
03/03:00am 22.5 22.4 19.5 83 1.9 NNE 19 26 10 14 1018.0 1015.6 0.0
03/02:30am 22.8 22.7 19.6 82 2.1 ENE 19 30 10 16 1018.9 1016.6 -
03/02:00am 23.2 22.0 19.2 78 2.6 NE 24 35 13 19 1018.9 1016.6 -
03/01:30am 23.5 21.9 19.2 77 2.8 E 26 37 14 20 1020.0 1017.6 -
03/01:00am 23.5 22.4 19.4 78 2.7 E 24 39 13 21 1020.7 1018.4 -
03/12:30am 23.5 23.0 19.2 77 2.8 ESE 20 28 11 15 1021.7 1019.4 -
03/12:00am 23.3 21.5 19.5 79 2.5 SE 28 39 15 21 1021.8 1019.5 -
 
Date/Time
EST
Temp
°C
App
Temp
°C
Dew
Point
°C
Rel
Hum
%
Delta-T
°C
Wind Press
QNH
hPa
Press
MSL
hPa
Rain since
9am
mm
Dir  Spd
km/h
Gust
km/h
Spd
kts
Gust
kts
02/11:30pm 24.6 22.6 18.3 68 4.0 SE 26 37 14 20 1021.9 1019.6 -
02/11:00pm 24.8 22.6 18.7 69 3.9 SE 28 37 15 20 1020.1 1017.7 -
02/10:37pm 24.7 21.7 19.1 71 3.6 E 33 48 18 26 1018.6 1016.3 -
02/10:30pm 24.8 20.4 19.2 71 3.6 E 41 52 22 28 1018.1 1015.7 -
02/10:08pm 25.9 21.7 18.1 62 5.0 ESE 37 56 20 30 1017.7 1015.3 -
02/10:00pm 26.1 21.4 17.7 60 5.4 ESE 39 52 21 28 1017.8 1015.4 -
02/09:30pm 26.8 23.3 17.8 57 5.8 ESE 33 44 18 24 1018.7 1016.4 -
02/09:00pm 26.9 24.7 17.9 57 5.8 SE 26 35 14 19 1019.2 1016.9 0.0
02/08:53pm 27.1 24.6 18.1 58 5.8 SSE 28 46 15 25 1019.2 1016.9 -
02/08:40pm 27.6 23.0 18.0 55 6.2 SE 39 52 21 28 1018.9 1016.6 -
02/08:30pm 27.7 22.9 18.4 57 6.0 ESE 41 52 22 28 1018.3 1015.9 -
02/08:29pm 27.7 23.0 18.7 58 5.9 ESE 41 52 22 28 1018.0 1015.6 -
02/08:19pm 27.9 24.9 19.1 58 5.8 ESE 33 48 18 26 1017.3 1015.0 -
02/08:00pm 28.4 27.1 19.1 57 6.1 E 24 39 13 21 1016.6 1014.3 -
02/07:30pm 29.1 28.6 19.1 54 6.6 E 20 33 11 18 1016.0 1013.6 -
02/07:00pm 30.1 28.3 19.5 53 7.0 E 28 43 15 23 1015.3 1012.9 -
02/06:30pm 31.3 28.2 19.6 49 7.8 ESE 35 46 19 25 1015.0 1012.7 -
02/06:17pm 32.1 28.8 20.0 48 8.1 SE 37 50 20 27 1014.9 1012.6 -
02/06:06pm 33.0 30.7 20.5 47 8.5 ESE 33 50 18 27 1015.8 1013.4 -
02/06:00pm 33.1 29.7 20.6 47 8.5 E 39 52 21 28 1014.5 1012.2 -
02/05:30pm 34.8 31.3 20.4 43 9.8 E 39 52 21 28 1013.2 1010.8 -
02/05:00pm 36.3 33.0 19.3 37 11.4 E 35 52 19 28 1012.9 1010.5 -
02/04:30pm 37.8 35.0 17.2 29 13.6 ESE 28 39 15 21 1012.9 1010.5 -

Other formats

Comma delimited format used in spreadsheet applications
http://www.bom.gov.au/fwo/IDQ60801/IDQ60801.99435.axf

JavaScript Object Notation format (JSON) in row-major order
http://www.bom.gov.au/fwo/IDQ60801/IDQ60801.99435.json

Data quality

Most of these data are generated automatically and are frequently updated. Quality checks on data are not normally performed. It is possible for incorrect values to appear. Refer to information at About Latest Weather Observations and please check the disclaimer before using these data.